Time;durP1;ratioP1;P1;durP2;ratioP2;P2;SDS_P1;SDS_P2;PMS_P1;PMS_P2;Temp;Humidity;BMP_temperature;BMP_pressure;BME280_temperature;BME280_humidity;BME280_pressure;Samples;Min_cycle;Max_cycle;Signal;HPM_P1;HPM_P2
2023/09/17 00:01:14;;;;;;;52.65;39.05;;;15.50;99.90;;;;;;4973357;28;20193;-69
2023/09/17 00:03:40;;;;;;;48.80;38.88;;;15.50;99.90;;;;;;4949764;28;20198;-69
2023/09/17 00:06:08;;;;;;;48.55;39.58;;;15.50;99.90;;;;;;4955348;28;20190;-69
2023/09/17 00:08:34;;;;;;;51.55;39.47;;;15.50;99.90;;;;;;4955330;28;20557;-69
2023/09/17 00:11:00;;;;;;;55.83;40.22;;;15.40;99.90;;;;;;4966088;28;20219;-69
2023/09/17 00:13:27;;;;;;;49.72;39.08;;;15.40;99.90;;;;;;4952271;28;20605;-69
2023/09/17 00:15:53;;;;;;;52.78;39.25;;;15.40;99.90;;;;;;4972835;28;20210;-69
2023/09/17 00:18:19;;;;;;;51.70;39.40;;;15.40;99.90;;;;;;4972587;28;20202;-69
2023/09/17 00:20:45;;;;;;;50.53;39.25;;;15.40;99.90;;;;;;4972504;28;20193;-69
2023/09/17 00:23:11;;;;;;;55.38;40.92;;;15.40;99.90;;;;;;4972469;28;20655;-69
2023/09/17 00:25:37;;;;;;;53.70;41.85;;;15.40;99.90;;;;;;4972802;28;20237;-69
2023/09/17 00:28:03;;;;;;;54.58;40.10;;;15.40;99.90;;;;;;4969446;28;20190;-69
2023/09/17 00:30:29;;;;;;;53.17;39.92;;;15.40;99.90;;;;;;4954953;28;20213;-68
2023/09/17 00:32:55;;;;;;;53.58;40.88;;;15.40;99.90;;;;;;4955422;28;20194;-68
2023/09/17 00:35:21;;;;;;;53.92;40.78;;;15.40;99.90;;;;;;4972927;28;20704;-68
2023/09/17 00:37:47;;;;;;;53.60;41.45;;;15.40;99.90;;;;;;4954876;28;20182;-68
2023/09/17 00:40:13;;;;;;;55.38;40.72;;;15.40;99.90;;;;;;4939870;28;20189;-67
2023/09/17 00:42:42;;;;;;;53.15;41.67;;;15.40;99.90;;;;;;4971988;28;20185;-67
2023/09/17 00:45:10;;;;;;;60.28;43.90;;;15.40;99.90;;;;;;4947740;29;20198;-68
2023/09/17 00:47:37;;;;;;;53.65;41.90;;;15.30;99.90;;;;;;4953512;28;20178;-68
2023/09/17 00:50:04;;;;;;;57.38;42.75;;;15.40;99.90;;;;;;4972664;28;20229;-68
2023/09/17 00:52:33;;;;;;;57.10;42.13;;;15.30;99.90;;;;;;4954749;28;20194;-68
2023/09/17 00:54:59;;;;;;;56.53;42.17;;;15.30;99.90;;;;;;4936361;29;20201;-68
2023/09/17 00:57:26;;;;;;;53.72;40.65;;;15.30;99.90;;;;;;4951865;29;20248;-67
2023/09/17 00:59:52;;;;;;;55.20;41.78;;;15.30;99.90;;;;;;4952233;29;20205;-68
2023/09/17 01:02:21;;;;;;;51.50;41.45;;;15.30;99.90;;;;;;4952358;28;20197;-69
2023/09/17 01:04:50;;;;;;;59.45;41.17;;;15.40;99.90;;;;;;4953884;28;20194;-68
2023/09/17 01:07:25;;;;;;;50.72;41.10;;;15.30;99.90;;;;;;4955971;29;20227;-70
2023/09/17 01:09:52;;;;;;;51.20;39.78;;;15.30;99.90;;;;;;4940131;29;20576;-69
2023/09/17 01:12:18;;;;;;;54.13;41.85;;;15.30;99.90;;;;;;4971110;28;20198;-69
2023/09/17 01:14:46;;;;;;;53.15;41.83;;;15.30;99.90;;;;;;4956561;28;20186;-68
2023/09/17 01:17:13;;;;;;;61.72;42.55;;;15.30;99.90;;;;;;4939910;29;20658;-69
2023/09/17 01:19:42;;;;;;;59.03;43.78;;;15.30;99.90;;;;;;4954247;29;20281;-69
2023/09/17 01:22:26;;;;;;;56.25;42.63;;;15.30;99.90;;;;;;4970442;28;20196;-69
2023/09/17 01:25:04;;;;;;;55.92;44.58;;;15.30;99.90;;;;;;4970403;28;20238;-69
2023/09/17 01:27:32;;;;;;;61.05;44.22;;;15.30;99.90;;;;;;4955779;29;20186;-69
2023/09/17 01:29:58;;;;;;;61.45;44.88;;;15.30;99.90;;;;;;4956250;28;20659;-68
2023/09/17 01:32:24;;;;;;;63.72;45.40;;;15.30;99.90;;;;;;4969773;28;20234;-68
2023/09/17 01:34:53;;;;;;;61.72;45.05;;;15.30;99.90;;;;;;4955682;28;20213;-68
2023/09/17 01:37:36;;;;;;;65.95;46.92;;;15.30;99.90;;;;;;4952209;29;20257;-69
2023/09/17 01:40:11;;;;;;;64.80;47.40;;;15.30;99.90;;;;;;4957140;28;20285;-68
2023/09/17 01:42:43;;;;;;;66.07;45.47;;;15.40;99.90;;;;;;4955899;28;20694;-69
2023/09/17 01:45:14;;;;;;;64.95;46.63;;;15.40;99.90;;;;;;4938840;29;20191;-67
2023/09/17 01:47:45;;;;;;;63.58;46.30;;;15.40;99.90;;;;;;4955112;29;20183;-68
2023/09/17 01:50:15;;;;;;;64.20;46.20;;;15.30;99.90;;;;;;4956585;28;20272;-70
2023/09/17 01:52:46;;;;;;;59.40;44.40;;;15.40;99.90;;;;;;4943066;28;20191;-69
2023/09/17 01:55:12;;;;;;;64.13;47.20;;;15.40;99.90;;;;;;4975471;28;20185;-68
2023/09/17 01:57:39;;;;;;;64.35;46.67;;;15.40;99.90;;;;;;4975212;28;20241;-68
2023/09/17 02:00:14;;;;;;;65.88;47.08;;;15.40;99.90;;;;;;4957602;28;20193;-68
2023/09/17 02:02:51;;;;;;;70.00;48.92;;;15.50;99.90;;;;;;4962917;28;20213;-68
2023/09/17 02:05:20;;;;;;;71.75;50.58;;;15.50;99.90;;;;;;4974747;28;20277;-69
2023/09/17 02:07:47;;;;;;;68.20;48.33;;;15.50;99.90;;;;;;4957441;28;20190;-70
2023/09/17 02:10:13;;;;;;;71.13;48.13;;;15.50;99.90;;;;;;4969573;28;20218;-68
2023/09/17 02:12:39;;;;;;;68.07;49.15;;;15.50;99.90;;;;;;4957456;28;20181;-67
2023/09/17 02:15:06;;;;;;;67.75;49.00;;;15.60;99.90;;;;;;4974364;28;20232;-69
2023/09/17 02:17:32;;;;;;;66.65;50.10;;;15.60;99.90;;;;;;4957433;28;20273;-68
2023/09/17 02:19:58;;;;;;;75.90;50.58;;;15.60;99.90;;;;;;4974875;28;20698;-68
2023/09/17 02:22:24;;;;;;;77.30;52.65;;;15.60;99.90;;;;;;4974396;28;20277;-68
2023/09/17 02:24:50;;;;;;;79.50;52.20;;;15.60;99.90;;;;;;4974217;28;20654;-69
2023/09/17 02:27:16;;;;;;;74.18;51.78;;;15.60;99.90;;;;;;4965746;28;20194;-68
2023/09/17 02:29:43;;;;;;;73.97;53.17;;;15.60;99.90;;;;;;4971839;28;20218;-68
2023/09/17 02:32:10;;;;;;;74.15;53.67;;;15.70;99.90;;;;;;4957561;28;20198;-68
2023/09/17 02:34:38;;;;;;;75.43;52.25;;;15.70;99.90;;;;;;4974391;28;20178;-70
2023/09/17 02:37:04;;;;;;;75.93;53.70;;;15.70;99.90;;;;;;4956562;28;20204;-68
2023/09/17 02:39:31;;;;;;;78.22;54.47;;;15.70;99.90;;;;;;4956701;28;20273;-68
2023/09/17 02:41:58;;;;;;;80.07;54.10;;;15.80;99.90;;;;;;4957193;28;20208;-68
2023/09/17 02:44:25;;;;;;;70.03;51.92;;;15.80;99.90;;;;;;4968969;28;20225;-67
2023/09/17 02:46:51;;;;;;;77.50;53.95;;;15.80;99.90;;;;;;4974785;28;20192;-68
2023/09/17 02:49:21;;;;;;;75.45;53.65;;;15.90;99.90;;;;;;4940548;28;20539;-69
2023/09/17 02:51:48;;;;;;;78.00;52.03;;;15.80;99.90;;;;;;4956466;28;20360;-68
2023/09/17 02:54:14;;;;;;;73.93;53.10;;;15.90;99.90;;;;;;4974078;28;20222;-68
2023/09/17 02:56:42;;;;;;;72.63;51.13;;;15.90;99.90;;;;;;4957325;28;20186;-68
2023/09/17 02:59:08;;;;;;;74.53;53.53;;;15.90;99.90;;;;;;4974235;28;20194;-68
2023/09/17 03:01:35;;;;;;;72.97;52.83;;;15.90;99.90;;;;;;4956968;28;20185;-68
2023/09/17 03:04:04;;;;;;;76.85;53.97;;;15.90;99.90;;;;;;4956765;28;20193;-68
2023/09/17 03:06:30;;;;;;;73.72;52.45;;;15.90;99.90;;;;;;4957202;28;20201;-69
2023/09/17 03:08:57;;;;;;;71.07;51.50;;;16.00;99.90;;;;;;4956313;28;20190;-67
2023/09/17 03:11:26;;;;;;;67.75;51.38;;;16.00;99.90;;;;;;4940267;28;20218;-69
2023/09/17 03:13:55;;;;;;;72.93;53.53;;;16.00;99.90;;;;;;4956343;28;20213;-68
2023/09/17 03:16:22;;;;;;;74.15;51.92;;;16.00;99.90;;;;;;4956670;28;20218;-68
2023/09/17 03:18:48;;;;;;;65.65;48.60;;;16.10;99.90;;;;;;4955641;28;20198;-67
2023/09/17 03:21:14;;;;;;;67.28;49.88;;;16.10;99.90;;;;;;4956430;28;20193;-70
2023/09/17 03:23:40;;;;;;;67.13;48.85;;;16.10;99.90;;;;;;4961263;28;20186;-69
2023/09/17 03:26:09;;;;;;;67.05;49.70;;;16.10;99.90;;;;;;4956279;28;20213;-68
2023/09/17 03:28:35;;;;;;;68.45;51.28;;;16.20;99.90;;;;;;4956803;28;20312;-68
2023/09/17 03:31:04;;;;;;;67.85;49.00;;;16.20;99.90;;;;;;4956134;28;20646;-68
2023/09/17 03:33:30;;;;;;;71.13;50.10;;;16.20;99.90;;;;;;4956613;28;20274;-68
2023/09/17 03:35:58;;;;;;;70.95;49.58;;;16.30;99.90;;;;;;4956151;28;20248;-69
2023/09/17 03:38:24;;;;;;;64.40;48.40;;;16.30;99.90;;;;;;4973602;28;20201;-68
2023/09/17 03:40:51;;;;;;;67.22;48.45;;;16.30;99.90;;;;;;4973456;28;20233;-68
2023/09/17 03:43:17;;;;;;;65.30;48.70;;;16.30;99.90;;;;;;4956350;28;20280;-68
2023/09/17 03:45:45;;;;;;;67.70;48.92;;;16.40;99.90;;;;;;4973557;28;20194;-69
2023/09/17 03:48:12;;;;;;;66.50;49.45;;;16.40;99.90;;;;;;4940473;28;20193;-68
2023/09/17 03:50:39;;;;;;;65.38;48.90;;;16.40;99.90;;;;;;4955769;28;20218;-68
2023/09/17 03:53:06;;;;;;;64.72;48.55;;;16.50;99.90;;;;;;4948779;28;21379;-69
2023/09/17 03:55:34;;;;;;;63.17;47.45;;;16.50;99.90;;;;;;4955527;28;20241;-68
2023/09/17 03:58:01;;;;;;;64.82;48.58;;;16.50;99.90;;;;;;4955997;28;20233;-68
2023/09/17 04:00:33;;;;;;;63.83;48.13;;;16.60;99.90;;;;;;4939929;28;20198;-69
2023/09/17 04:03:00;;;;;;;72.35;49.70;;;16.60;99.90;;;;;;4956043;28;20626;-68
2023/09/17 04:05:26;;;;;;;60.45;45.03;;;16.60;99.90;;;;;;4955725;28;20527;-68
2023/09/17 04:07:53;;;;;;;62.60;47.10;;;16.70;99.90;;;;;;4973144;28;20201;-69
2023/09/17 04:10:20;;;;;;;60.60;43.85;;;16.70;99.90;;;;;;4939413;28;20214;-68
2023/09/17 04:12:46;;;;;;;63.25;45.83;;;16.70;99.90;;;;;;4973385;28;20193;-68
2023/09/17 04:15:16;;;;;;;63.22;47.58;;;16.70;99.90;;;;;;4955313;28;20259;-68
2023/09/17 04:17:43;;;;;;;63.15;46.78;;;16.70;99.90;;;;;;4972886;28;20190;-70
2023/09/17 04:20:19;;;;;;;63.45;45.75;;;16.70;99.90;;;;;;4939665;28;20186;-70
2023/09/17 04:22:48;;;;;;;64.75;47.22;;;16.70;99.90;;;;;;4955019;28;20185;-68
2023/09/17 04:25:16;;;;;;;63.38;45.05;;;16.70;99.90;;;;;;4914580;28;20197;-69
2023/09/17 04:27:44;;;;;;;57.42;43.58;;;16.70;99.90;;;;;;4955250;28;20288;-68
2023/09/17 04:30:14;;;;;;;67.40;46.72;;;16.70;99.90;;;;;;4938806;28;20214;-68
2023/09/17 04:32:42;;;;;;;60.78;46.22;;;16.70;99.90;;;;;;4954354;28;20182;-69
2023/09/17 04:35:10;;;;;;;68.00;48.63;;;16.80;99.90;;;;;;4939581;28;20713;-69
2023/09/17 04:37:39;;;;;;;66.40;47.63;;;16.80;99.90;;;;;;4955079;28;20647;-70
2023/09/17 04:40:11;;;;;;;69.20;50.97;;;16.80;99.90;;;;;;4954830;28;20188;-69
2023/09/17 04:42:43;;;;;;;76.68;52.75;;;16.80;99.90;;;;;;4954109;28;20240;-69
2023/09/17 04:45:11;;;;;;;75.70;51.05;;;16.80;99.90;;;;;;4955037;28;20217;-68
2023/09/17 04:47:38;;;;;;;71.63;52.60;;;16.80;99.90;;;;;;4955254;28;20185;-68
2023/09/17 04:50:09;;;;;;;67.47;51.20;;;16.80;99.90;;;;;;4972689;28;20555;-68
2023/09/17 04:52:36;;;;;;;72.50;52.60;;;16.80;99.90;;;;;;4954199;28;20265;-69
2023/09/17 04:55:04;;;;;;;80.18;55.30;;;16.80;99.90;;;;;;4955259;28;20233;-69
2023/09/17 04:57:31;;;;;;;75.57;55.08;;;16.80;99.90;;;;;;4939352;28;20190;-69
2023/09/17 04:59:56;;;;;;;80.43;56.30;;;16.80;99.90;;;;;;4954783;28;20554;-68
2023/09/17 05:02:22;;;;;;;75.90;54.50;;;16.90;99.90;;;;;;4954601;28;20217;-67
2023/09/17 05:04:48;;;;;;;75.18;55.22;;;16.90;99.90;;;;;;4954607;28;20201;-68
2023/09/17 05:07:14;;;;;;;73.35;53.40;;;16.90;99.90;;;;;;4954793;28;20276;-68
2023/09/17 05:09:41;;;;;;;77.82;53.63;;;16.90;99.90;;;;;;4938933;28;20240;-68
2023/09/17 05:12:08;;;;;;;72.57;53.53;;;16.90;99.90;;;;;;4955075;28;20186;-68
2023/09/17 05:14:35;;;;;;;74.38;53.63;;;16.90;99.90;;;;;;4955185;28;20197;-69
2023/09/17 05:17:02;;;;;;;75.13;53.55;;;16.90;99.90;;;;;;4938519;28;20277;-69
2023/09/17 05:19:27;;;;;;;76.57;52.00;;;16.90;99.90;;;;;;4954602;28;20186;-69
2023/09/17 05:21:53;;;;;;;72.93;51.78;;;16.90;99.90;;;;;;4938283;28;20681;-70
2023/09/17 05:24:19;;;;;;;69.82;51.35;;;17.00;99.90;;;;;;4939055;28;20186;-69
2023/09/17 05:26:45;;;;;;;72.30;50.00;;;16.90;99.90;;;;;;4938432;28;20642;-69
2023/09/17 05:29:15;;;;;;;70.72;50.15;;;16.90;99.90;;;;;;4955181;28;20185;-69
2023/09/17 05:31:43;;;;;;;69.43;48.50;;;16.90;99.90;;;;;;4942536;28;20235;-69
2023/09/17 05:34:09;;;;;;;69.85;50.88;;;16.90;99.90;;;;;;4954576;28;20677;-68
2023/09/17 05:36:35;;;;;;;75.65;50.33;;;16.90;99.90;;;;;;4954986;28;20227;-69
2023/09/17 05:39:02;;;;;;;74.63;52.67;;;16.90;99.90;;;;;;4954570;28;20189;-69
2023/09/17 05:41:28;;;;;;;75.07;52.70;;;16.90;99.90;;;;;;4953688;28;20186;-69
2023/09/17 05:43:54;;;;;;;80.93;54.72;;;16.90;99.90;;;;;;4938358;28;20198;-69
2023/09/17 05:46:20;;;;;;;72.43;52.25;;;16.90;99.90;;;;;;4954205;28;20204;-69
2023/09/17 05:48:48;;;;;;;76.95;52.88;;;16.90;99.90;;;;;;4986934;28;20198;-70
2023/09/17 05:51:14;;;;;;;77.45;52.92;;;16.90;99.90;;;;;;4972188;28;20228;-69
2023/09/17 05:53:40;;;;;;;66.75;51.20;;;16.90;99.90;;;;;;4956012;28;20730;-70
2023/09/17 05:56:07;;;;;;;74.10;51.78;;;16.90;99.90;;;;;;4957905;28;20190;-68
2023/09/17 05:58:34;;;;;;;73.07;52.35;;;16.90;99.90;;;;;;4957897;28;20252;-68
2023/09/17 06:01:02;;;;;;;71.32;52.25;;;16.90;99.90;;;;;;4958677;28;20197;-69
2023/09/17 06:03:28;;;;;;;72.18;50.67;;;17.00;99.90;;;;;;4958413;28;20196;-68
2023/09/17 06:05:55;;;;;;;69.55;49.95;;;17.00;99.90;;;;;;4958578;28;20190;-69
2023/09/17 06:08:22;;;;;;;68.93;51.80;;;17.00;99.90;;;;;;4953606;28;20213;-69
2023/09/17 06:10:49;;;;;;;65.57;50.17;;;17.00;99.90;;;;;;4958096;28;20217;-69
2023/09/17 06:13:17;;;;;;;66.40;50.28;;;17.10;99.90;;;;;;4975276;28;20216;-69
2023/09/17 06:15:45;;;;;;;63.20;47.63;;;17.10;99.90;;;;;;4975087;28;20186;-69
2023/09/17 06:18:11;;;;;;;63.85;48.00;;;17.10;99.90;;;;;;4958035;28;20186;-69
2023/09/17 06:20:38;;;;;;;67.45;47.80;;;17.20;99.90;;;;;;4957845;28;20210;-71
2023/09/17 06:23:04;;;;;;;62.00;46.92;;;17.20;99.90;;;;;;4957099;28;20231;-68
2023/09/17 06:25:30;;;;;;;61.22;44.88;;;17.20;99.90;;;;;;4941519;28;20599;-69
2023/09/17 06:27:56;;;;;;;61.28;44.75;;;17.20;99.90;;;;;;4957695;28;20206;-69
2023/09/17 06:30:22;;;;;;;57.40;44.78;;;17.30;99.90;;;;;;4957702;28;20217;-69
2023/09/17 06:32:48;;;;;;;53.20;42.47;;;17.30;99.90;;;;;;4956140;28;20261;-65
2023/09/17 06:35:15;;;;;;;57.78;42.83;;;17.40;99.90;;;;;;4957558;28;20269;-68
2023/09/17 06:37:41;;;;;;;50.65;42.28;;;17.40;99.90;;;;;;4956271;28;20281;-68
2023/09/17 06:40:13;;;;;;;58.47;43.13;;;17.50;99.90;;;;;;4956881;28;20677;-67
2023/09/17 06:42:40;;;;;;;54.03;42.60;;;17.50;99.90;;;;;;4956158;28;20233;-67
2023/09/17 06:45:08;;;;;;;57.20;43.25;;;17.50;99.90;;;;;;4957673;28;20213;-66
2023/09/17 06:47:34;;;;;;;52.28;40.08;;;17.60;99.90;;;;;;4974754;28;20212;-68
2023/09/17 06:50:00;;;;;;;52.50;40.85;;;17.60;99.90;;;;;;4956503;28;20605;-67
2023/09/17 06:52:27;;;;;;;53.83;41.55;;;17.70;99.90;;;;;;4951247;28;20194;-69
2023/09/17 06:54:53;;;;;;;55.60;41.17;;;17.70;99.90;;;;;;4974124;28;20569;-69
2023/09/17 06:57:19;;;;;;;50.83;40.55;;;17.70;99.90;;;;;;4957514;28;20767;-69
2023/09/17 06:59:46;;;;;;;47.35;39.83;;;17.80;99.90;;;;;;4973626;28;20186;-70
2023/09/17 07:02:12;;;;;;;55.67;41.45;;;17.80;99.90;;;;;;4953669;28;20193;-68
2023/09/17 07:04:38;;;;;;;53.33;42.28;;;17.80;99.90;;;;;;4972264;28;20174;-69
2023/09/17 07:07:04;;;;;;;49.85;40.80;;;17.90;99.90;;;;;;4957372;28;20236;-69
2023/09/17 07:09:31;;;;;;;53.67;41.40;;;17.90;99.90;;;;;;4974898;28;20546;-65
2023/09/17 07:11:57;;;;;;;54.53;41.88;;;18.00;99.90;;;;;;4972177;28;20197;-67
2023/09/17 07:14:23;;;;;;;50.33;41.78;;;18.10;99.90;;;;;;4937821;28;20213;-64
2023/09/17 07:16:50;;;;;;;53.97;41.55;;;18.10;99.90;;;;;;4974564;28;20622;-67
2023/09/17 07:19:16;;;;;;;51.08;41.13;;;18.20;99.90;;;;;;4973109;28;20200;-68
2023/09/17 07:21:42;;;;;;;50.95;40.75;;;18.30;99.90;;;;;;4958446;28;20216;-70
2023/09/17 07:24:09;;;;;;;56.60;40.95;;;18.40;99.90;;;;;;4973845;28;20504;-70
2023/09/17 07:26:35;;;;;;;49.75;39.08;;;18.40;99.90;;;;;;4961213;28;20190;-69
2023/09/17 07:29:03;;;;;;;50.67;39.33;;;18.50;99.90;;;;;;4980485;28;20590;-69
2023/09/17 07:31:29;;;;;;;47.42;38.33;;;18.60;99.90;;;;;;4938461;28;20791;-68
2023/09/17 07:33:55;;;;;;;47.90;38.22;;;18.70;99.90;;;;;;4971658;28;20185;-66
2023/09/17 07:36:21;;;;;;;43.55;36.50;;;18.80;99.90;;;;;;4974236;28;20193;-69
2023/09/17 07:38:47;;;;;;;46.95;35.72;;;18.90;99.90;;;;;;4973882;28;20224;-70
2023/09/17 07:41:13;;;;;;;51.08;36.72;;;18.90;99.90;;;;;;4973427;28;20200;-70
2023/09/17 07:43:39;;;;;;;42.03;33.88;;;19.00;99.90;;;;;;4969421;28;20189;-71
2023/09/17 07:46:05;;;;;;;42.42;34.17;;;19.10;99.90;;;;;;4974432;28;20269;-70
2023/09/17 07:48:31;;;;;;;42.25;33.55;;;19.20;99.90;;;;;;4973571;28;20182;-69
2023/09/17 07:50:59;;;;;;;44.33;34.20;;;19.30;99.90;;;;;;4956235;28;20222;-69
2023/09/17 07:53:25;;;;;;;39.85;32.20;;;19.30;99.90;;;;;;4968986;28;20233;-70
2023/09/17 07:55:51;;;;;;;42.72;33.05;;;19.40;99.90;;;;;;4971229;28;20229;-69
2023/09/17 07:58:17;;;;;;;37.60;30.60;;;19.50;99.90;;;;;;4955832;28;20194;-69
2023/09/17 08:00:45;;;;;;;43.88;29.30;;;19.60;99.90;;;;;;4956633;28;20209;-70
2023/09/17 08:03:16;;;;;;;34.47;29.38;;;19.60;99.90;;;;;;4971732;28;20186;-71
2023/09/17 08:05:46;;;;;;;39.72;30.80;;;19.70;99.90;;;;;;4954109;28;20185;-70
2023/09/17 08:08:13;;;;;;;37.90;31.48;;;19.70;99.90;;;;;;4973520;28;20258;-68
2023/09/17 08:10:39;;;;;;;38.08;29.23;;;19.80;99.90;;;;;;4971177;28;20214;-69
2023/09/17 08:13:05;;;;;;;38.20;28.83;;;19.80;99.90;;;;;;4955196;28;20667;-68
2023/09/17 08:15:31;;;;;;;36.47;27.98;;;19.90;99.90;;;;;;4968012;28;20264;-69
2023/09/17 08:17:57;;;;;;;44.47;32.40;;;19.90;99.90;;;;;;4955987;28;20279;-72
2023/09/17 08:20:24;;;;;;;35.72;27.77;;;19.90;99.90;;;;;;4973050;28;20186;-69
2023/09/17 08:22:51;;;;;;;33.72;27.42;;;20.00;99.90;;;;;;4972813;28;20190;-69
2023/09/17 08:25:37;;;;;;;32.70;27.30;;;20.00;99.90;;;;;;4969299;28;20297;-69
2023/09/17 08:28:23;;;;;;;33.03;27.05;;;20.00;99.90;;;;;;4972216;28;20205;-69
2023/09/17 08:31:08;;;;;;;39.35;28.15;;;20.00;99.90;;;;;;4958385;28;20265;-69
2023/09/17 08:33:54;;;;;;;35.63;27.63;;;20.00;99.90;;;;;;4950439;28;20272;-68
2023/09/17 08:36:27;;;;;;;37.22;27.13;;;20.00;99.90;;;;;;4968545;28;20182;-69
2023/09/17 08:38:54;;;;;;;36.30;28.45;;;20.00;99.90;;;;;;4967319;28;20551;-69
2023/09/17 08:41:22;;;;;;;36.58;27.80;;;20.00;99.90;;;;;;4972530;28;20654;-68
2023/09/17 08:43:53;;;;;;;40.90;27.63;;;20.00;99.90;;;;;;4972843;28;20200;-70
2023/09/17 08:46:22;;;;;;;39.95;27.05;;;20.10;99.90;;;;;;4969506;28;20194;-65
2023/09/17 08:48:49;;;;;;;32.92;26.75;;;20.20;99.90;;;;;;4955217;28;20209;-67
2023/09/17 08:51:18;;;;;;;35.38;27.70;;;20.30;99.90;;;;;;4972498;28;20224;-62
2023/09/17 08:53:56;;;;;;;34.63;28.65;;;20.30;99.90;;;;;;4972228;28;20202;-68
2023/09/17 08:56:23;;;;;;;37.63;29.80;;;20.40;99.90;;;;;;4969541;28;20232;-67
2023/09/17 08:58:58;;;;;;;41.40;30.42;;;20.40;99.90;;;;;;4966327;28;20293;-65
2023/09/17 09:01:25;;;;;;;41.38;29.52;;;20.40;99.90;;;;;;4968207;28;20182;-66
2023/09/17 09:03:56;;;;;;;40.00;30.13;;;20.40;99.90;;;;;;4955124;28;20190;-65
2023/09/17 09:06:24;;;;;;;37.75;28.35;;;20.30;99.90;;;;;;4971511;28;20292;-66
2023/09/17 09:08:52;;;;;;;34.85;28.52;;;20.30;99.90;;;;;;4950823;29;20560;-68
2023/09/17 09:11:19;;;;;;;31.60;26.17;;;20.30;99.90;;;;;;4971388;28;20214;-69
2023/09/17 09:13:46;;;;;;;33.33;27.92;;;20.40;99.90;;;;;;4972718;28;20186;-69
2023/09/17 09:16:12;;;;;;;40.10;27.48;;;20.40;99.90;;;;;;4954954;28;20182;-68
2023/09/17 09:18:39;;;;;;;35.15;26.02;;;20.50;99.90;;;;;;4951190;28;20635;-68
2023/09/17 09:21:05;;;;;;;33.35;26.27;;;20.60;99.90;;;;;;4972372;28;20658;-68
2023/09/17 09:23:31;;;;;;;34.30;25.30;;;20.60;99.90;;;;;;4971472;28;20190;-69
2023/09/17 09:25:57;;;;;;;31.83;24.70;;;20.60;99.90;;;;;;4975075;28;20662;-68
2023/09/17 09:28:23;;;;;;;43.50;27.27;;;20.60;99.90;;;;;;4972796;28;20206;-71
2023/09/17 09:30:49;;;;;;;40.83;31.45;;;20.60;99.90;;;;;;4954268;28;20248;-68
2023/09/17 09:33:16;;;;;;;39.38;28.40;;;20.30;99.90;;;;;;4958903;28;20197;-67
2023/09/17 09:35:44;;;;;;;36.13;28.00;;;20.00;99.90;;;;;;4976010;28;20181;-68
2023/09/17 09:38:11;;;;;;;38.55;28.92;;;19.80;99.90;;;;;;4976241;28;20205;-68
2023/09/17 09:40:38;;;;;;;43.47;30.27;;;19.80;99.90;;;;;;4972293;28;20200;-68
2023/09/17 09:43:04;;;;;;;35.17;28.48;;;19.80;99.90;;;;;;4976074;28;20594;-67
2023/09/17 09:45:30;;;;;;;37.63;28.20;;;19.80;99.90;;;;;;4975365;28;20178;-68
2023/09/17 09:47:57;;;;;;;39.55;27.63;;;19.90;99.90;;;;;;4975581;28;20263;-70
2023/09/17 09:50:26;;;;;;;35.45;27.05;;;19.90;99.90;;;;;;4974340;28;20250;-70
2023/09/17 09:52:54;;;;;;;36.50;26.42;;;20.00;99.90;;;;;;4971174;28;20722;-69
2023/09/17 09:55:27;;;;;;;35.13;27.42;;;20.00;99.90;;;;;;4973499;28;20252;-67
2023/09/17 09:57:53;;;;;;;32.03;25.65;;;20.00;99.90;;;;;;4973001;28;20237;-69
2023/09/17 10:00:26;;;;;;;34.90;26.35;;;20.00;99.90;;;;;;4957849;28;20276;-70
2023/09/17 10:02:56;;;;;;;32.08;25.50;;;20.10;99.90;;;;;;4971407;28;20249;-68
2023/09/17 10:05:37;;;;;;;34.15;24.92;;;20.10;99.90;;;;;;4973859;28;20234;-70
2023/09/17 10:08:04;;;;;;;33.90;25.02;;;20.20;99.90;;;;;;4969293;28;20252;-73
2023/09/17 10:10:30;;;;;;;29.63;23.20;;;20.20;99.90;;;;;;4976523;28;20230;-69
2023/09/17 10:12:57;;;;;;;29.20;22.45;;;20.30;99.90;;;;;;4975839;28;20632;-70
2023/09/17 10:15:23;;;;;;;28.33;22.17;;;20.30;99.90;;;;;;4976428;28;20189;-71
2023/09/17 10:17:49;;;;;;;30.70;22.05;;;20.30;99.90;;;;;;4975702;28;20197;-68
2023/09/17 10:20:18;;;;;;;27.75;21.67;;;20.40;99.90;;;;;;4972645;28;20216;-70
2023/09/17 10:22:46;;;;;;;25.85;19.85;;;20.50;99.90;;;;;;4971007;28;20212;-69
2023/09/17 10:25:16;;;;;;;28.10;19.60;;;20.50;99.90;;;;;;4957877;28;20293;-67
2023/09/17 10:27:43;;;;;;;28.73;20.20;;;20.60;99.90;;;;;;4974934;28;20198;-68
2023/09/17 10:30:12;;;;;;;23.48;19.50;;;20.60;99.90;;;;;;4973362;28;20218;-71
2023/09/17 10:32:39;;;;;;;28.90;20.20;;;20.70;99.90;;;;;;4952932;28;20186;-70
2023/09/17 10:35:07;;;;;;;24.02;19.13;;;20.70;99.90;;;;;;4974848;28;20284;-70
2023/09/17 10:37:36;;;;;;;30.27;19.83;;;20.70;99.90;;;;;;4973691;28;20206;-69
2023/09/17 10:40:09;;;;;;;24.27;18.70;;;20.70;99.90;;;;;;4966673;28;20522;-69
2023/09/17 10:42:39;;;;;;;21.77;19.23;;;20.70;99.90;;;;;;4970504;28;20565;-69
2023/09/17 10:45:13;;;;;;;25.88;20.23;;;20.70;99.90;;;;;;4957759;28;20582;-70
2023/09/17 10:47:40;;;;;;;25.63;19.90;;;20.70;99.90;;;;;;4957308;28;20201;-69
2023/09/17 10:50:08;;;;;;;24.42;18.95;;;20.80;99.90;;;;;;4974602;28;20210;-72
2023/09/17 10:52:36;;;;;;;24.60;19.10;;;20.80;99.90;;;;;;4973556;28;20190;-72
2023/09/17 10:55:07;;;;;;;28.27;21.10;;;20.80;99.90;;;;;;4973572;28;20231;-70
2023/09/17 10:57:43;;;;;;;27.20;20.60;;;20.80;99.90;;;;;;4970158;28;20278;-69
2023/09/17 11:00:17;;;;;;;28.38;21.27;;;20.80;99.90;;;;;;4973297;28;20591;-69
2023/09/17 11:02:48;;;;;;;28.05;20.35;;;20.90;99.90;;;;;;4974323;28;20269;-69
2023/09/17 11:05:16;;;;;;;28.73;20.60;;;21.00;99.90;;;;;;4966549;28;20220;-69
2023/09/17 11:07:42;;;;;;;28.42;20.85;;;21.10;99.90;;;;;;4974378;28;20264;-71
2023/09/17 11:10:12;;;;;;;26.52;20.50;;;21.10;99.90;;;;;;4969971;28;20222;-69
2023/09/17 11:12:39;;;;;;;27.77;21.35;;;21.10;99.90;;;;;;4970298;28;20197;-69
2023/09/17 11:15:06;;;;;;;28.10;21.20;;;21.10;99.90;;;;;;4951330;28;20186;-68
2023/09/17 11:17:33;;;;;;;25.73;20.25;;;21.20;99.90;;;;;;4968324;28;20929;-68
2023/09/17 11:19:59;;;;;;;25.40;19.35;;;21.20;99.90;;;;;;4972036;28;20186;-69
2023/09/17 11:22:30;;;;;;;26.20;20.23;;;21.20;99.90;;;;;;4956015;28;20252;-69
2023/09/17 11:24:56;;;;;;;27.67;21.27;;;21.20;99.90;;;;;;4973938;28;20664;-69
2023/09/17 11:27:47;;;;;;;27.52;20.17;;;21.20;99.90;;;;;;4973504;28;20186;-69
2023/09/17 11:30:23;;;;;;;34.30;21.38;;;21.20;99.90;;;;;;4952286;28;20218;-68
2023/09/17 11:32:55;;;;;;;28.45;20.23;;;21.30;99.90;;;;;;4972467;28;20669;-68
2023/09/17 11:35:24;;;;;;;31.20;20.83;;;21.40;99.90;;;;;;4955939;28;20674;-67
2023/09/17 11:37:51;;;;;;;26.55;20.90;;;21.50;99.90;;;;;;4973310;28;20245;-67
2023/09/17 11:40:19;;;;;;;23.45;19.30;;;21.50;99.90;;;;;;4971320;28;20646;-66
2023/09/17 11:42:46;;;;;;;24.48;19.48;;;21.60;99.90;;;;;;4973677;28;20688;-67
2023/09/17 11:45:14;;;;;;;24.27;18.38;;;21.60;99.90;;;;;;4972232;28;20210;-67
2023/09/17 11:47:40;;;;;;;25.70;19.23;;;21.70;99.90;;;;;;4951604;28;20186;-69
2023/09/17 11:50:08;;;;;;;22.77;18.95;;;21.70;99.90;;;;;;4973089;28;20276;-68
2023/09/17 11:52:35;;;;;;;24.63;19.30;;;21.80;99.90;;;;;;4972752;28;20583;-70
2023/09/17 11:55:11;;;;;;;24.25;17.77;;;21.80;99.90;;;;;;4972881;28;20732;-68
2023/09/17 11:57:37;;;;;;;23.88;18.90;;;21.80;99.90;;;;;;4973412;28;20189;-67
2023/09/17 12:00:12;;;;;;;24.65;19.08;;;21.70;99.90;;;;;;4973043;28;20277;-71
2023/09/17 12:02:38;;;;;;;25.73;20.40;;;21.70;99.90;;;;;;4973586;28;20189;-69
2023/09/17 12:05:04;;;;;;;32.80;19.38;;;21.60;99.90;;;;;;4972392;28;20601;-68
2023/09/17 12:07:33;;;;;;;27.58;19.92;;;21.60;99.90;;;;;;4968150;28;20225;-69
2023/09/17 12:10:05;;;;;;;25.42;18.60;;;21.60;99.90;;;;;;4970297;28;20305;-69
2023/09/17 12:12:34;;;;;;;24.77;20.50;;;21.60;99.90;;;;;;4968581;28;20186;-67
2023/09/17 12:15:00;;;;;;;31.40;22.95;;;21.70;99.90;;;;;;4973249;28;20193;-67
2023/09/17 12:17:27;;;;;;;28.58;21.45;;;21.60;99.90;;;;;;4970286;28;20896;-69
2023/09/17 12:20:10;;;;;;;26.92;21.42;;;21.60;99.90;;;;;;4970820;28;20190;-69
2023/09/17 12:23:03;;;;;;;27.45;21.75;;;21.70;99.90;;;;;;4966991;28;20186;-69
2023/09/17 12:25:28;;;;;;;25.70;20.85;;;21.80;99.90;;;;;;4972019;28;20193;-69
2023/09/17 12:27:54;;;;;;;25.48;20.67;;;21.90;99.90;;;;;;4955582;28;20189;-68
2023/09/17 12:30:20;;;;;;;25.77;19.73;;;22.10;99.90;;;;;;4969311;28;20214;-67
2023/09/17 12:32:47;;;;;;;25.02;18.90;;;22.30;99.90;;;;;;4966574;28;20187;-68